Time;durP1;ratioP1;P1;durP2;ratioP2;P2;SDS_P1;SDS_P2;PMS_P1;PMS_P2;Temp;Humidity;BMP_temperature;BMP_pressure;BME280_temperature;BME280_humidity;BME280_pressure;Samples;Min_cycle;Max_cycle;Signal;HPM_P1;HPM_P2
2021/07/12 00:00:15;;;;;;;43.43;18.20;;;;;;;;;;5035643;28;20200;-84
2021/07/12 00:02:45;;;;;;;39.97;18.60;;;;;;;;;;5036948;28;20234;-83
2021/07/12 00:05:13;;;;;;;45.70;19.70;;;;;;;;;;5029166;28;20234;-84
2021/07/12 00:07:40;;;;;;;101.33;20.63;;;;;;;;;;5033449;28;20212;-83
2021/07/12 00:10:10;;;;;;;51.17;19.43;;;;;;;;;;5031296;28;20223;-83
2021/07/12 00:12:38;;;;;;;45.20;19.37;;;;;;;;;;5036882;28;20206;-83
2021/07/12 00:15:06;;;;;;;47.50;18.43;;;;;;;;;;5037479;28;20306;-82
2021/07/12 00:17:33;;;;;;;33.30;17.50;;;;;;;;;;5031517;28;20517;-84
2021/07/12 00:20:00;;;;;;;62.57;18.93;;;;;;;;;;5039449;28;20211;-84
2021/07/12 00:22:27;;;;;;;55.00;20.17;;;;;;;;;;5042343;28;20231;-83
2021/07/12 00:24:55;;;;;;;69.90;21.40;;;;;;;;;;5028219;28;20282;-84
2021/07/12 00:27:23;;;;;;;46.43;19.30;;;;;;;;;;5046813;28;20231;-81
2021/07/12 00:29:51;;;;;;;41.23;18.00;;;;;;;;;;5049006;28;20216;-81
2021/07/12 00:32:18;;;;;;;37.03;18.17;;;;;;;;;;5045710;28;21204;-84
2021/07/12 00:34:46;;;;;;;32.93;16.73;;;;;;;;;;5038424;28;20223;-82
2021/07/12 00:37:13;;;;;;;45.37;18.43;;;;;;;;;;5033603;28;20224;-84
2021/07/12 00:39:40;;;;;;;39.13;17.43;;;;;;;;;;5029660;28;20281;-83
2021/07/12 00:42:08;;;;;;;33.83;16.17;;;;;;;;;;5036804;28;20208;-84
2021/07/12 00:44:36;;;;;;;45.70;16.70;;;;;;;;;;5035756;28;20233;-84
2021/07/12 00:47:05;;;;;;;37.57;15.27;;;;;;;;;;5030255;28;20212;-83
2021/07/12 00:49:32;;;;;;;105.47;17.13;;;;;;;;;;5032374;28;20212;-83
2021/07/12 00:52:00;;;;;;;47.97;16.60;;;;;;;;;;5041758;28;20677;-84
2021/07/12 00:54:28;;;;;;;81.27;16.67;;;;;;;;;;5030464;28;20222;-84
2021/07/12 00:56:55;;;;;;;31.67;15.47;;;;;;;;;;5039255;28;20211;-83
2021/07/12 00:59:23;;;;;;;43.23;16.10;;;;;;;;;;5035977;28;20238;-84
2021/07/12 01:01:51;;;;;;;44.60;15.07;;;;;;;;;;5031935;28;20199;-84
2021/07/12 01:04:19;;;;;;;29.73;14.77;;;;;;;;;;5030436;28;20231;-84
2021/07/12 01:06:46;;;;;;;33.27;13.80;;;;;;;;;;5034345;28;20244;-84
2021/07/12 01:09:13;;;;;;;29.93;14.83;;;;;;;;;;5031608;28;20282;-83
2021/07/12 01:11:44;;;;;;;28.27;13.47;;;;;;;;;;5023971;28;20230;-83
2021/07/12 01:14:16;;;;;;;34.83;14.93;;;;;;;;;;5025977;28;20239;-82
2021/07/12 01:16:51;;;;;;;33.67;15.13;;;;;;;;;;5031216;28;20299;-82
2021/07/12 01:19:48;;;;;;;26.50;13.87;;;;;;;;;;5029729;28;20289;-83
2021/07/12 01:22:30;;;;;;;35.37;14.67;;;;;;;;;;5023221;28;20282;-83
2021/07/12 01:25:18;;;;;;;36.77;14.33;;;;;;;;;;5025833;28;20243;-83
2021/07/12 01:27:55;;;;;;;35.33;14.07;;;;;;;;;;5029238;28;20271;-84
2021/07/12 01:30:24;;;;;;;35.73;15.00;;;;;;;;;;5023758;28;20199;-83
2021/07/12 01:33:03;;;;;;;47.70;16.57;;;;;;;;;;5029320;28;20236;-82
2021/07/12 01:35:34;;;;;;;38.77;15.77;;;;;;;;;;5026328;28;20698;-82
2021/07/12 01:38:19;;;;;;;46.40;16.77;;;;;;;;;;5032831;28;20235;-84
2021/07/12 01:40:50;;;;;;;57.43;17.80;;;;;;;;;;5025750;28;20204;-84
2021/07/12 01:43:23;;;;;;;41.20;16.87;;;;;;;;;;5028031;28;20207;-84
2021/07/12 01:45:55;;;;;;;56.83;18.90;;;;;;;;;;5026627;28;21001;-83
2021/07/12 01:48:29;;;;;;;34.47;16.90;;;;;;;;;;5027030;28;20204;-83
2021/07/12 01:50:58;;;;;;;59.53;18.13;;;;;;;;;;5036263;28;20255;-84
2021/07/12 01:53:29;;;;;;;47.30;17.83;;;;;;;;;;5028749;28;20239;-82
2021/07/12 01:55:57;;;;;;;47.40;18.17;;;;;;;;;;5033454;28;20271;-85
2021/07/12 01:58:27;;;;;;;54.40;17.90;;;;;;;;;;5035513;28;20199;-83
2021/07/12 02:00:55;;;;;;;59.80;18.80;;;;;;;;;;5041407;28;20199;-85
2021/07/12 02:03:23;;;;;;;43.03;18.33;;;;;;;;;;5032534;28;20621;-84
2021/07/12 02:05:52;;;;;;;50.10;18.67;;;;;;;;;;5034270;28;20228;-85
2021/07/12 02:08:21;;;;;;;49.77;18.40;;;;;;;;;;5035435;28;20204;-82
2021/07/12 02:10:48;;;;;;;52.50;18.00;;;;;;;;;;5034997;28;20235;-80
2021/07/12 02:13:15;;;;;;;41.97;17.97;;;;;;;;;;5044656;28;20199;-81
2021/07/12 02:15:46;;;;;;;41.87;16.93;;;;;;;;;;5048500;28;20239;-81
2021/07/12 02:18:14;;;;;;;54.40;17.17;;;;;;;;;;5043432;28;20243;-84
2021/07/12 02:20:42;;;;;;;45.40;17.97;;;;;;;;;;5032924;28;20261;-82
2021/07/12 02:23:11;;;;;;;46.30;16.53;;;;;;;;;;5036026;28;20218;-84
2021/07/12 02:25:39;;;;;;;62.27;15.53;;;;;;;;;;5036103;28;20239;-84
2021/07/12 02:28:07;;;;;;;72.63;17.63;;;;;;;;;;5035999;28;20215;-84
2021/07/12 02:30:34;;;;;;;69.00;16.13;;;;;;;;;;5035476;28;20281;-85
2021/07/12 02:33:02;;;;;;;67.53;15.50;;;;;;;;;;5038223;28;20212;-83
2021/07/12 02:35:29;;;;;;;51.03;15.80;;;;;;;;;;5037570;28;20224;-82
2021/07/12 02:37:58;;;;;;;53.83;16.63;;;;;;;;;;5044043;28;20199;-84
2021/07/12 02:40:26;;;;;;;36.80;14.40;;;;;;;;;;5028708;28;20258;-84
2021/07/12 02:42:55;;;;;;;74.07;15.47;;;;;;;;;;5040685;28;20235;-85
2021/07/12 02:45:23;;;;;;;59.73;15.93;;;;;;;;;;5039831;28;20227;-85
2021/07/12 02:47:51;;;;;;;67.77;16.97;;;;;;;;;;5037574;28;20286;-83
2021/07/12 02:50:18;;;;;;;40.30;16.70;;;;;;;;;;5038816;28;20199;-83
2021/07/12 02:52:49;;;;;;;47.00;16.80;;;;;;;;;;5039397;28;20710;-84
2021/07/12 02:55:16;;;;;;;43.07;15.93;;;;;;;;;;5031271;28;20243;-84
2021/07/12 02:57:45;;;;;;;38.00;15.47;;;;;;;;;;5038487;28;20299;-84
2021/07/12 03:00:13;;;;;;;51.73;15.13;;;;;;;;;;5036790;28;20246;-84
2021/07/12 03:02:41;;;;;;;42.67;15.13;;;;;;;;;;5041242;28;20474;-83
2021/07/12 03:05:09;;;;;;;44.23;14.40;;;;;;;;;;5036198;28;20223;-84
2021/07/12 03:07:39;;;;;;;36.33;14.93;;;;;;;;;;5038508;28;20238;-83
2021/07/12 03:10:09;;;;;;;41.07;14.07;;;;;;;;;;5036579;28;20283;-82
2021/07/12 03:12:39;;;;;;;41.00;15.27;;;;;;;;;;5039302;28;20218;-84
2021/07/12 03:15:09;;;;;;;37.97;14.20;;;;;;;;;;5032914;28;20220;-84
2021/07/12 03:17:39;;;;;;;71.20;14.00;;;;;;;;;;5033136;28;20235;-84
2021/07/12 03:20:08;;;;;;;42.30;12.90;;;;;;;;;;5040011;28;20208;-84
2021/07/12 03:22:36;;;;;;;42.23;12.00;;;;;;;;;;5037319;28;20863;-84
2021/07/12 03:25:04;;;;;;;50.53;13.43;;;;;;;;;;5034651;28;20258;-83
2021/07/12 03:27:32;;;;;;;40.90;13.67;;;;;;;;;;5033344;28;20613;-82
2021/07/12 03:30:01;;;;;;;37.17;13.47;;;;;;;;;;5035767;28;20227;-82
2021/07/12 03:32:31;;;;;;;36.17;12.63;;;;;;;;;;5032086;28;20228;-85
2021/07/12 03:34:59;;;;;;;32.00;12.00;;;;;;;;;;5041811;28;20243;-85
2021/07/12 03:37:26;;;;;;;35.63;12.43;;;;;;;;;;5043453;28;20200;-83
2021/07/12 03:39:53;;;;;;;38.27;13.37;;;;;;;;;;5042232;28;20231;-84
2021/07/12 03:42:21;;;;;;;36.57;12.37;;;;;;;;;;5042611;28;20231;-85
2021/07/12 03:44:49;;;;;;;39.93;13.17;;;;;;;;;;5035339;28;20252;-85
2021/07/12 03:47:31;;;;;;;38.90;14.03;;;;;;;;;;5043702;28;20208;-84
2021/07/12 03:50:11;;;;;;;29.90;12.33;;;;;;;;;;5033113;28;20189;-84
2021/07/12 03:52:42;;;;;;;32.93;13.00;;;;;;;;;;5034359;28;20665;-85
2021/07/12 03:55:10;;;;;;;25.30;11.87;;;;;;;;;;5037040;28;20243;-85
2021/07/12 03:57:37;;;;;;;36.90;12.70;;;;;;;;;;5052954;28;20222;-82
2021/07/12 04:00:05;;;;;;;43.57;11.93;;;;;;;;;;5050767;28;20184;-82
2021/07/12 04:02:33;;;;;;;42.30;10.83;;;;;;;;;;5054503;28;20203;-85
2021/07/12 04:05:00;;;;;;;49.63;11.67;;;;;;;;;;5040968;28;20288;-85
2021/07/12 04:07:28;;;;;;;47.60;11.60;;;;;;;;;;5042228;28;21193;-84
2021/07/12 04:09:55;;;;;;;30.40;11.17;;;;;;;;;;5032218;28;20208;-83
2021/07/12 04:12:24;;;;;;;30.23;10.90;;;;;;;;;;5040199;28;20252;-84
2021/07/12 04:14:51;;;;;;;34.37;10.27;;;;;;;;;;5039200;28;20242;-83
2021/07/12 04:17:18;;;;;;;34.23;11.07;;;;;;;;;;5039046;28;20199;-85
2021/07/12 04:19:47;;;;;;;41.87;13.03;;;;;;;;;;5038773;28;20234;-82
2021/07/12 04:22:14;;;;;;;34.43;11.40;;;;;;;;;;5041777;28;20234;-84
2021/07/12 04:24:42;;;;;;;23.37;10.73;;;;;;;;;;5043692;28;20299;-84
2021/07/12 04:27:09;;;;;;;30.00;10.47;;;;;;;;;;5040310;28;20656;-83
2021/07/12 04:29:36;;;;;;;27.50;11.13;;;;;;;;;;5034330;28;20239;-84
2021/07/12 04:32:04;;;;;;;35.43;9.13;;;;;;;;;;5033225;28;20703;-84
2021/07/12 04:34:31;;;;;;;23.57;9.37;;;;;;;;;;5034775;28;20767;-84
2021/07/12 04:36:59;;;;;;;24.70;7.90;;;;;;;;;;5024210;28;20199;-84
2021/07/12 04:39:26;;;;;;;26.07;8.63;;;;;;;;;;5025150;28;20239;-82
2021/07/12 04:41:54;;;;;;;13.60;7.33;;;;;;;;;;5031114;28;20287;-83
2021/07/12 04:44:22;;;;;;;13.70;7.13;;;;;;;;;;5028183;28;20572;-83
2021/07/12 04:46:49;;;;;;;17.10;7.50;;;;;;;;;;5028770;28;20311;-82
2021/07/12 04:49:16;;;;;;;13.07;7.47;;;;;;;;;;5026034;28;20267;-83
2021/07/12 04:51:44;;;;;;;13.60;7.43;;;;;;;;;;5030429;28;20223;-83
2021/07/12 04:54:12;;;;;;;19.03;8.13;;;;;;;;;;5040059;28;20231;-83
2021/07/12 04:56:39;;;;;;;14.30;7.67;;;;;;;;;;5032689;28;20204;-83
2021/07/12 04:59:09;;;;;;;14.60;7.43;;;;;;;;;;5029669;28;20315;-84
2021/07/12 05:01:37;;;;;;;15.80;8.30;;;;;;;;;;5031159;28;20908;-84
2021/07/12 05:04:04;;;;;;;13.83;7.57;;;;;;;;;;5031342;28;20259;-83
2021/07/12 05:06:32;;;;;;;17.33;7.50;;;;;;;;;;5031426;28;20200;-84
2021/07/12 05:08:59;;;;;;;12.60;7.17;;;;;;;;;;5034875;28;20222;-83
2021/07/12 05:11:28;;;;;;;15.70;7.47;;;;;;;;;;5033960;28;20723;-84
2021/07/12 05:13:56;;;;;;;14.03;7.87;;;;;;;;;;5030027;28;20655;-84
2021/07/12 05:16:24;;;;;;;17.97;8.40;;;;;;;;;;5033785;28;20266;-84
2021/07/12 05:18:51;;;;;;;14.50;7.87;;;;;;;;;;5035197;28;20267;-83
2021/07/12 05:21:18;;;;;;;17.00;9.03;;;;;;;;;;5034419;28;20220;-84
2021/07/12 05:23:45;;;;;;;14.67;7.87;;;;;;;;;;5034658;28;20234;-83
2021/07/12 05:26:13;;;;;;;18.83;7.93;;;;;;;;;;5040428;28;20238;-84
2021/07/12 05:28:42;;;;;;;18.00;8.27;;;;;;;;;;5039729;28;20224;-82
2021/07/12 05:31:10;;;;;;;16.03;8.50;;;;;;;;;;5040028;28;20196;-85
2021/07/12 05:33:37;;;;;;;19.10;8.47;;;;;;;;;;5042842;28;20220;-85
2021/07/12 05:36:06;;;;;;;16.30;8.47;;;;;;;;;;5035096;28;20239;-85
2021/07/12 05:38:33;;;;;;;15.57;8.83;;;;;;;;;;5033556;28;20214;-84
2021/07/12 05:41:01;;;;;;;17.60;8.03;;;;;;;;;;5036046;28;20205;-81
2021/07/12 05:43:28;;;;;;;15.20;8.73;;;;;;;;;;5041147;28;20219;-82
2021/07/12 05:45:56;;;;;;;14.10;8.00;;;;;;;;;;5043303;28;20219;-82
2021/07/12 05:48:24;;;;;;;13.77;8.40;;;;;;;;;;5038510;28;20200;-85
2021/07/12 05:50:51;;;;;;;14.17;8.30;;;;;;;;;;5028878;28;20208;-84
2021/07/12 05:53:18;;;;;;;15.50;8.87;;;;;;;;;;5033450;28;20232;-85
2021/07/12 05:55:45;;;;;;;12.70;7.90;;;;;;;;;;5027109;23;20257;-76
2021/07/12 05:58:12;;;;;;;15.23;9.10;;;;;;;;;;4999873;28;20197;-76
2021/07/12 06:00:40;;;;;;;12.97;7.17;;;;;;;;;;4998461;28;20331;-76
2021/07/12 06:03:08;;;;;;;14.60;8.60;;;;;;;;;;4991232;28;20292;-76
2021/07/12 06:05:35;;;;;;;14.20;8.73;;;;;;;;;;4995238;28;20765;-76
2021/07/12 06:08:02;;;;;;;14.67;8.90;;;;;;;;;;4991894;28;20231;-76
2021/07/12 06:10:30;;;;;;;14.07;8.50;;;;;;;;;;4991730;28;20300;-76
2021/07/12 06:12:57;;;;;;;13.67;8.20;;;;;;;;;;4998159;28;20228;-76
2021/07/12 06:15:42;;;;;;;16.43;9.33;;;;;;;;;;4993228;28;20201;-76
2021/07/12 06:21:14;;;;;;;15.57;8.20;;;;;;;;;;4990828;28;20342;-76
2021/07/12 06:23:41;;;;;;;12.20;7.73;;;;;;;;;;4990796;28;20670;-76
2021/07/12 06:26:09;;;;;;;11.67;7.73;;;;;;;;;;4993925;28;20668;-76
2021/07/12 06:28:36;;;;;;;11.63;7.17;;;;;;;;;;4990357;28;20219;-76
2021/07/12 06:31:03;;;;;;;11.57;7.50;;;;;;;;;;4990889;28;20234;-76
2021/07/12 06:36:35;;;;;;;11.00;7.13;;;;;;;;;;4995849;28;20195;-77
2021/07/12 06:39:39;;;;;;;11.40;7.70;;;;;;;;;;4994295;28;20219;-76
2021/07/12 06:42:07;;;;;;;10.97;7.00;;;;;;;;;;4990563;28;20228;-76
2021/07/12 06:47:37;;;;;;;9.17;6.63;;;;;;;;;;4991768;28;20195;-76
2021/07/12 06:50:06;;;;;;;7.83;6.00;;;;;;;;;;4994526;28;20714;-75
2021/07/12 06:55:15;;;;;;;11.10;6.90;;;;;;;;;;4983878;28;20218;-76
2021/07/12 06:57:42;;;;;;;8.40;5.40;;;;;;;;;;4997491;28;20209;-76
2021/07/12 07:00:10;;;;;;;8.53;6.03;;;;;;;;;;4993568;28;20212;-76
2021/07/12 07:05:41;;;;;;;11.10;6.50;;;;;;;;;;4992064;28;20188;-76
2021/07/12 07:08:09;;;;;;;14.50;7.73;;;;;;;;;;4993774;28;20304;-76
2021/07/12 07:10:36;;;;;;;14.07;8.53;;;;;;;;;;5003811;28;20259;-74
2021/07/12 07:13:04;;;;;;;12.60;8.37;;;;;;;;;;5000970;28;22217;-74
2021/07/12 07:15:31;;;;;;;15.40;8.93;;;;;;;;;;4991043;28;20215;-74
2021/07/12 07:17:59;;;;;;;18.93;9.37;;;;;;;;;;4998499;28;20213;-75
2021/07/12 07:23:02;;;;;;;12.93;8.40;;;;;;;;;;5379362;23;20220;-74
2021/07/12 07:25:40;;;;;;;10.03;6.73;;;;;;;;;;4980685;28;20201;-73
2021/07/12 07:28:07;;;;;;;12.43;7.90;;;;;;;;;;4979268;28;20296;-75
2021/07/12 07:30:37;;;;;;;11.47;7.50;;;;;;;;;;4978429;28;20230;-75
2021/07/12 07:33:05;;;;;;;12.40;7.80;;;;;;;;;;4988555;28;20225;-75
2021/07/12 07:35:44;;;;;;;12.00;8.43;;;;;;;;;;4982486;28;20643;-74
2021/07/12 07:38:11;;;;;;;12.10;7.10;;;;;;;;;;4975923;28;20294;-76
2021/07/12 07:40:39;;;;;;;10.07;7.17;;;;;;;;;;4975753;28;20597;-74
2021/07/12 07:43:07;;;;;;;10.40;7.07;;;;;;;;;;4974077;28;20195;-74
2021/07/12 07:48:44;;;;;;;9.03;5.97;;;;;;;;;;4974609;28;20247;-75
2021/07/12 07:51:11;;;;;;;8.70;6.17;;;;;;;;;;4971812;28;20710;-75
2021/07/12 07:53:38;;;;;;;9.33;6.83;;;;;;;;;;4972723;28;20710;-75
2021/07/12 07:56:06;;;;;;;9.30;6.50;;;;;;;;;;4974741;28;20743;-74
2021/07/12 07:58:35;;;;;;;7.67;5.40;;;;;;;;;;4976709;28;20293;-75
2021/07/12 08:01:02;;;;;;;7.33;5.73;;;;;;;;;;4980668;28;20292;-75
2021/07/12 08:03:29;;;;;;;7.53;5.40;;;;;;;;;;4973515;28;20206;-75
2021/07/12 08:11:46;;;;;;;7.80;4.80;;;;;;;;;;4976842;28;20248;-75
2021/07/12 08:14:15;;;;;;;7.67;5.43;;;;;;;;;;4972558;28;20228;-75
2021/07/12 08:16:42;;;;;;;7.73;5.00;;;;;;;;;;4975929;28;20300;-75
2021/07/12 08:19:21;;;;;;;9.60;5.33;;;;;;;;;;4977405;28;20205;-74
2021/07/12 08:25:05;;;;;;;9.17;4.57;;;;;;;;;;4980729;28;20204;-75
2021/07/12 08:27:44;;;;;;;7.97;4.60;;;;;;;;;;4980942;28;20212;-76
2021/07/12 08:30:15;;;;;;;7.90;4.82;;;;;;;;;;4982649;28;20288;-75
2021/07/12 08:32:42;;;;;;;6.32;4.38;;;;;;;;;;4985176;28;20216;-77
2021/07/12 08:35:19;;;;;;;6.78;4.25;;;;;;;;;;4984792;28;20292;-75
2021/07/12 08:40:28;;;;;;;5.03;3.85;;;;;;;;;;4961751;28;20219;-75
2021/07/12 08:42:56;;;;;;;6.07;4.07;;;;;;;;;;4981923;28;20202;-75
2021/07/12 08:45:25;;;;;;;7.13;4.13;;;;;;;;;;4980622;28;20206;-75
2021/07/12 08:50:36;;;;;;;5.80;4.25;;;;;;;;;;4957826;28;20213;-77
2021/07/12 08:53:03;;;;;;;7.50;3.63;;;;;;;;;;4975045;28;20232;-76
2021/07/12 08:55:31;;;;;;;5.03;3.60;;;;;;;;;;4976688;28;20214;-75
2021/07/12 08:58:00;;;;;;;7.63;3.80;;;;;;;;;;4977086;28;20300;-75
2021/07/12 09:00:41;;;;;;;6.10;3.30;;;;;;;;;;4979634;28;20213;-75
2021/07/12 09:03:18;;;;;;;5.30;3.75;;;;;;;;;;4985322;28;20306;-75
2021/07/12 09:06:06;;;;;;;4.63;3.93;;;;;;;;;;4971241;28;20615;-76
2021/07/12 09:11:38;;;;;;;4.43;3.20;;;;;;;;;;4976457;28;20276;-75
2021/07/12 09:17:11;;;;;;;4.33;3.53;;;;;;;;;;4980168;28;20200;-75
2021/07/12 09:19:39;;;;;;;6.90;3.27;;;;;;;;;;4978214;28;20304;-74
2021/07/12 09:22:07;;;;;;;4.77;3.63;;;;;;;;;;4977416;28;20865;-74
2021/07/12 09:24:52;;;;;;;4.23;3.50;;;;;;;;;;4979910;28;20293;-74
2021/07/12 09:27:23;;;;;;;4.53;3.23;;;;;;;;;;4971782;28;20213;-76
2021/07/12 09:29:53;;;;;;;3.97;2.73;;;;;;;;;;4980421;28;20322;-75
2021/07/12 09:32:22;;;;;;;3.27;2.57;;;;;;;;;;4983765;28;20257;-75
2021/07/12 09:34:50;;;;;;;6.00;2.70;;;;;;;;;;4973203;28;20238;-74
2021/07/12 09:37:19;;;;;;;4.40;2.73;;;;;;;;;;4972371;28;20213;-75
2021/07/12 09:39:46;;;;;;;3.10;2.67;;;;;;;;;;4973687;28;20647;-75
2021/07/12 09:42:15;;;;;;;2.73;2.50;;;;;;;;;;4971396;28;20777;-74
2021/07/12 09:44:43;;;;;;;5.67;2.87;;;;;;;;;;4978447;28;20200;-75
2021/07/12 09:47:16;;;;;;;3.73;2.67;;;;;;;;;;4971170;28;20210;-75
2021/07/12 09:49:45;;;;;;;4.60;2.80;;;;;;;;;;4974374;28;20244;-75
2021/07/12 09:52:13;;;;;;;4.80;2.70;;;;;;;;;;4971285;28;20225;-75
2021/07/12 09:54:41;;;;;;;4.60;3.17;;;;;;;;;;4978689;28;20228;-75
2021/07/12 09:57:10;;;;;;;6.17;3.00;;;;;;;;;;4973671;28;20213;-75
2021/07/12 09:59:38;;;;;;;3.47;2.80;;;;;;;;;;4976895;28;20306;-75
2021/07/12 10:02:05;;;;;;;4.30;3.00;;;;;;;;;;4984200;28;20574;-75
2021/07/12 10:04:33;;;;;;;4.10;2.90;;;;;;;;;;4977405;28;20618;-75
2021/07/12 10:07:02;;;;;;;6.57;3.33;;;;;;;;;;4975287;28;20298;-75
2021/07/12 10:09:29;;;;;;;6.97;3.47;;;;;;;;;;4980719;28;20577;-75
2021/07/12 10:11:57;;;;;;;5.10;3.70;;;;;;;;;;4976958;28;20225;-75
2021/07/12 10:14:25;;;;;;;7.43;3.80;;;;;;;;;;4981531;28;20259;-75
2021/07/12 10:16:52;;;;;;;4.40;3.40;;;;;;;;;;4970949;28;20257;-74
2021/07/12 10:19:20;;;;;;;3.77;3.17;;;;;;;;;;4978754;28;20296;-75
2021/07/12 10:21:49;;;;;;;6.43;3.00;;;;;;;;;;4981895;23;20221;-75
2021/07/12 10:24:18;;;;;;;6.20;2.97;;;;;;;;;;4984900;28;20284;-74
2021/07/12 10:26:53;;;;;;;4.17;2.90;;;;;;;;;;4990147;28;20297;-74
2021/07/12 10:29:24;;;;;;;7.33;3.10;;;;;;;;;;4984828;28;20217;-74
2021/07/12 10:31:55;;;;;;;4.60;3.10;;;;;;;;;;4989765;28;20232;-74
2021/07/12 10:34:26;;;;;;;8.43;3.20;;;;;;;;;;4995369;28;20240;-74
2021/07/12 10:36:59;;;;;;;6.77;3.20;;;;;;;;;;4982050;28;20212;-74
2021/07/12 10:39:59;;;;;;;4.10;3.30;;;;;;;;;;4974550;28;20205;-74
2021/07/12 10:42:45;;;;;;;3.53;3.00;;;;;;;;;;4979556;28;20715;-75
2021/07/12 10:45:15;;;;;;;6.10;3.70;;;;;;;;;;4981545;28;20205;-74
2021/07/12 10:47:42;;;;;;;3.93;3.30;;;;;;;;;;4982503;28;20662;-75
2021/07/12 10:50:24;;;;;;;4.67;3.07;;;;;;;;;;4979166;28;20199;-74
2021/07/12 10:52:52;;;;;;;4.63;3.33;;;;;;;;;;4981155;28;20291;-74
2021/07/12 10:55:29;;;;;;;4.73;3.03;;;;;;;;;;4983549;28;20224;-75
2021/07/12 10:58:11;;;;;;;4.10;2.90;;;;;;;;;;4980234;28;20570;-74
2021/07/12 11:00:40;;;;;;;5.20;2.83;;;;;;;;;;4977417;28;20686;-74
2021/07/12 11:03:07;;;;;;;5.00;3.07;;;;;;;;;;4982862;28;20675;-74
2021/07/12 11:05:49;;;;;;;5.97;3.00;;;;;;;;;;4982710;28;20296;-74
2021/07/12 11:08:41;;;;;;;5.30;3.23;;;;;;;;;;4983599;28;20304;-74
2021/07/12 11:11:42;;;;;;;7.40;3.30;;;;;;;;;;4981468;28;20231;-75
2021/07/12 11:14:10;;;;;;;3.57;3.03;;;;;;;;;;4983774;28;20224;-75
2021/07/12 11:16:40;;;;;;;4.20;3.47;;;;;;;;;;4979053;28;20235;-75
2021/07/12 11:19:21;;;;;;;4.33;3.20;;;;;;;;;;4976503;28;20220;-75
2021/07/12 11:21:48;;;;;;;4.10;3.10;;;;;;;;;;5226844;23;20229;-74
2021/07/12 11:27:35;;;;;;;4.10;3.30;;;;;;;;;;4978005;28;20193;-74
2021/07/12 11:30:25;;;;;;;6.03;3.40;;;;;;;;;;4980464;28;20302;-74
2021/07/12 11:32:53;;;;;;;6.87;3.57;;;;;;;;;;4972781;28;20763;-74
2021/07/12 11:35:20;;;;;;;5.63;3.40;;;;;;;;;;4969996;28;20328;-74
2021/07/12 11:37:48;;;;;;;4.30;2.93;;;;;;;;;;4971488;28;20631;-75
2021/07/12 11:42:46;;;;;;;6.33;3.30;;;;;;;;;;5100588;23;20236;-85
2021/07/12 11:45:15;;;;;;;4.57;3.37;;;;;;;;;;4993325;28;20285;-84
2021/07/12 11:47:42;;;;;;;6.23;3.73;;;;;;;;;;4969498;28;20257;-84
2021/07/12 11:50:12;;;;;;;6.70;3.30;;;;;;;;;;4968242;28;20637;-84
2021/07/12 11:52:40;;;;;;;4.20;3.10;;;;;;;;;;4976497;28;20636;-84
2021/07/12 11:57:36;;;;;;;5.30;3.50;;;;;;;;;;4956766;28;20214;-76
2021/07/12 12:00:05;;;;;;;5.87;2.90;;;;;;;;;;4960922;28;20296;-76
2021/07/12 12:02:33;;;;;;;4.87;3.80;;;;;;;;;;4957421;28;20749;-77
2021/07/12 12:05:00;;;;;;;8.33;3.70;;;;;;;;;;4953085;28;20207;-73
2021/07/12 12:07:42;;;;;;;8.10;3.53;;;;;;;;;;4953586;28;20293;-75
2021/07/12 12:10:20;;;;;;;4.37;3.53;;;;;;;;;;4958130;28;20221;-74
2021/07/12 12:12:49;;;;;;;4.70;3.47;;;;;;;;;;4957006;28;20211;-74
2021/07/12 12:15:17;;;;;;;3.87;3.13;;;;;;;;;;4953232;28;20258;-74
2021/07/12 12:17:47;;;;;;;3.57;3.00;;;;;;;;;;4962752;28;20210;-74
2021/07/12 12:20:25;;;;;;;3.73;3.00;;;;;;;;;;4957260;28;20267;-74
2021/07/12 12:23:06;;;;;;;6.40;3.07;;;;;;;;;;4956669;28;20228;-73
2021/07/12 12:25:39;;;;;;;3.77;2.93;;;;;;;;;;4963574;28;20209;-75
2021/07/12 12:28:06;;;;;;;3.43;2.97;;;;;;;;;;4957972;28;20224;-74
2021/07/12 12:30:35;;;;;;;4.63;3.10;;;;;;;;;;4952263;28;20324;-74
2021/07/12 12:33:02;;;;;;;5.23;3.07;;;;;;;;;;4954059;28;20214;-74
2021/07/12 12:35:30;;;;;;;3.00;2.60;;;;;;;;;;4951741;28;20542;-75
2021/07/12 12:38:10;;;;;;;3.10;2.80;;;;;;;;;;4952242;28;20234;-73
2021/07/12 12:40:39;;;;;;;3.17;2.63;;;;;;;;;;4954451;28;22047;-74
2021/07/12 12:43:11;;;;;;;5.40;2.70;;;;;;;;;;4952794;28;20278;-75
2021/07/12 12:45:38;;;;;;;3.47;2.80;;;;;;;;;;4954831;28;20302;-76
2021/07/12 12:48:06;;;;;;;3.80;2.70;;;;;;;;;;4955525;28;20212;-75
2021/07/12 12:50:33;;;;;;;4.30;2.40;;;;;;;;;;4958401;28;20296;-74
2021/07/12 12:53:07;;;;;;;4.97;2.10;;;;;;;;;;4954087;28;20234;-75
2021/07/12 12:55:34;;;;;;;4.33;2.47;;;;;;;;;;4961139;28;20217;-75
2021/07/12 12:58:13;;;;;;;2.60;2.20;;;;;;;;;;4956366;28;20869;-75
2021/07/12 13:00:40;;;;;;;5.10;2.20;;;;;;;;;;4959070;28;20226;-75
2021/07/12 13:03:17;;;;;;;3.60;2.10;;;;;;;;;;4957175;28;20218;-76
2021/07/12 13:05:44;;;;;;;2.37;2.00;;;;;;;;;;4956030;28;20214;-75
2021/07/12 13:08:12;;;;;;;2.77;1.97;;;;;;;;;;4952492;28;20234;-75
2021/07/12 13:10:39;;;;;;;2.60;1.80;;;;;;;;;;4954897;28;20230;-75
2021/07/12 13:13:10;;;;;;;3.20;2.10;;;;;;;;;;4955280;28;20289;-76
2021/07/12 13:15:39;;;;;;;3.77;1.90;;;;;;;;;;4953242;28;20344;-75
2021/07/12 13:18:07;;;;;;;2.27;2.00;;;;;;;;;;4953103;28;20661;-75
2021/07/12 13:20:35;;;;;;;4.23;1.70;;;;;;;;;;4951214;28;20581;-76
2021/07/12 13:23:04;;;;;;;2.00;1.67;;;;;;;;;;4954940;28;20633;-76
2021/07/12 13:25:32;;;;;;;3.07;1.70;;;;;;;;;;4951570;28;20640;-76
2021/07/12 13:28:00;;;;;;;2.67;1.70;;;;;;;;;;4954471;28;20217;-76
2021/07/12 13:30:29;;;;;;;2.10;1.80;;;;;;;;;;4951804;28;20202;-74
2021/07/12 13:32:58;;;;;;;3.83;1.90;;;;;;;;;;4952784;28;20214;-74
2021/07/12 13:35:27;;;;;;;3.20;1.87;;;;;;;;;;4953116;28;20230;-76
2021/07/12 13:37:55;;;;;;;4.00;1.67;;;;;;;;;;4962379;28;20205;-75
2021/07/12 13:40:23;;;;;;;4.83;1.90;;;;;;;;;;4963944;28;20305;-76
2021/07/12 13:42:50;;;;;;;3.23;2.13;;;;;;;;;;4955843;28;20329;-76
2021/07/12 13:45:18;;;;;;;1.70;1.50;;;;;;;;;;4952357;28;20571;-75
2021/07/12 13:47:45;;;;;;;4.07;1.73;;;;;;;;;;4960067;28;20216;-76
2021/07/12 13:50:16;;;;;;;2.17;1.90;;;;;;;;;;4953672;28;20631;-77
2021/07/12 13:52:43;;;;;;;2.17;1.70;;;;;;;;;;4949431;28;20297;-76
2021/07/12 13:55:11;;;;;;;1.90;1.67;;;;;;;;;;4952248;28;20304;-76
2021/07/12 13:57:40;;;;;;;1.70;1.60;;;;;;;;;;4957503;28;20205;-76
2021/07/12 14:00:09;;;;;;;1.70;1.60;;;;;;;;;;4960944;28;20206;-76
2021/07/12 14:02:36;;;;;;;3.27;1.80;;;;;;;;;;4958362;28;20780;-76
2021/07/12 14:05:04;;;;;;;2.73;1.73;;;;;;;;;;4953133;28;20643;-76
2021/07/12 14:07:33;;;;;;;3.07;1.80;;;;;;;;;;4963472;28;20210;-76
2021/07/12 14:10:00;;;;;;;2.77;1.77;;;;;;;;;;4955332;28;20301;-76
2021/07/12 14:12:27;;;;;;;2.13;1.70;;;;;;;;;;4955539;28;20322;-76
2021/07/12 14:14:54;;;;;;;2.70;2.07;;;;;;;;;;4950388;28;20747;-76
2021/07/12 14:17:23;;;;;;;1.83;1.67;;;;;;;;;;4963906;28;20575;-77
2021/07/12 14:19:50;;;;;;;3.27;1.57;;;;;;;;;;4958385;28;20214;-77
2021/07/12 14:22:17;;;;;;;3.57;1.80;;;;;;;;;;4954094;28;20304;-77
2021/07/12 14:24:46;;;;;;;3.37;2.30;;;;;;;;;;4951753;28;20277;-76
2021/07/12 14:27:13;;;;;;;6.13;2.10;;;;;;;;;;4958415;28;20304;-76
2021/07/12 14:29:43;;;;;;;2.50;1.77;;;;;;;;;;4953123;28;20340;-76
2021/07/12 14:32:12;;;;;;;2.57;1.87;;;;;;;;;;4958003;28;20223;-76
2021/07/12 14:34:39;;;;;;;2.37;1.83;;;;;;;;;;4959267;28;20238;-77
2021/07/12 14:37:06;;;;;;;3.50;2.30;;;;;;;;;;4956560;28;20257;-76
2021/07/12 14:39:34;;;;;;;2.03;1.80;;;;;;;;;;4960655;28;20289;-76
2021/07/12 14:42:05;;;;;;;3.63;2.00;;;;;;;;;;4958179;28;20297;-76
2021/07/12 14:44:35;;;;;;;2.63;1.80;;;;;;;;;;4958200;28;20269;-75
2021/07/12 14:47:05;;;;;;;1.83;1.63;;;;;;;;;;4954499;28;20268;-76
2021/07/12 14:49:32;;;;;;;2.60;1.70;;;;;;;;;;4961619;28;20206;-76
2021/07/12 14:51:59;;;;;;;5.53;3.20;;;;;;;;;;4957831;28;20766;-77
2021/07/12 14:54:30;;;;;;;3.10;2.00;;;;;;;;;;4954586;28;20228;-76
2021/07/12 14:56:57;;;;;;;2.13;1.50;;;;;;;;;;4955182;28;20581;-76
2021/07/12 14:59:30;;;;;;;1.87;1.70;;;;;;;;;;4961007;28;20210;-76
2021/07/12 15:01:57;;;;;;;3.23;1.60;;;;;;;;;;4964960;28;20317;-79
2021/07/12 15:04:24;;;;;;;3.60;1.70;;;;;;;;;;4956697;28;21269;-78
2021/07/12 15:06:51;;;;;;;3.57;2.33;;;;;;;;;;4959541;28;20624;-77
2021/07/12 15:09:18;;;;;;;2.00;1.80;;;;;;;;;;4962851;28;20779;-77
2021/07/12 15:11:47;;;;;;;4.40;2.00;;;;;;;;;;4955811;28;20341;-77
2021/07/12 15:14:14;;;;;;;2.43;1.97;;;;;;;;;;4959690;28;20210;-77
2021/07/12 15:16:42;;;;;;;2.63;1.80;;;;;;;;;;4954909;28;20325;-77
2021/07/12 15:19:14;;;;;;;5.13;2.73;;;;;;;;;;4957552;28;20312;-77
2021/07/12 15:21:44;;;;;;;4.07;2.10;;;;;;;;;;4957388;28;20571;-76
2021/07/12 15:24:12;;;;;;;3.30;1.90;;;;;;;;;;4952009;28;20302;-76
2021/07/12 15:26:45;;;;;;;3.30;2.00;;;;;;;;;;4955773;28;21193;-77
2021/07/12 15:29:12;;;;;;;3.47;1.67;;;;;;;;;;4959814;28;20206;-77
2021/07/12 15:31:39;;;;;;;5.40;1.90;;;;;;;;;;4959352;28;20321;-77
2021/07/12 15:34:08;;;;;;;3.00;1.83;;;;;;;;;;4958190;28;20615;-77
2021/07/12 15:36:36;;;;;;;10.13;2.53;;;;;;;;;;4958172;28;20333;-76